createdAt,value
2018-07-15T00:01:39.879Z,13.17
2018-07-15T00:04:08.332Z,12.70
2018-07-15T00:06:36.625Z,11.67
2018-07-15T00:09:06.039Z,11.17
2018-07-15T00:11:34.410Z,12.30
2018-07-15T00:14:02.796Z,11.40
2018-07-15T00:16:31.115Z,11.00
2018-07-15T00:18:59.329Z,10.10
2018-07-15T00:21:27.719Z,11.47
2018-07-15T00:26:35.239Z,10.83
2018-07-15T00:29:03.653Z,12.23
2018-07-15T00:31:31.951Z,10.90
2018-07-15T00:34:00.234Z,11.30
2018-07-15T00:36:28.559Z,11.63
2018-07-15T00:38:56.862Z,11.60
2018-07-15T00:41:25.160Z,11.77
2018-07-15T00:43:53.476Z,11.37
2018-07-15T00:46:21.822Z,11.60
2018-07-15T00:48:50.202Z,11.00
2018-07-15T00:51:18.561Z,11.10
2018-07-15T00:53:46.886Z,10.23
2018-07-15T00:56:15.181Z,11.30
2018-07-15T01:01:38.325Z,11.93
2018-07-15T01:04:06.964Z,11.10
2018-07-15T01:06:35.279Z,10.67
2018-07-15T01:09:03.843Z,11.33
2018-07-15T01:11:32.190Z,10.90
2018-07-15T01:14:00.505Z,12.60
2018-07-15T01:16:28.784Z,12.17
2018-07-15T01:18:57.182Z,14.00
2018-07-15T01:21:25.483Z,11.18
2018-07-15T01:23:53.767Z,11.70
2018-07-15T01:26:22.055Z,11.77
2018-07-15T01:28:50.476Z,11.70
2018-07-15T01:31:18.869Z,12.13
2018-07-15T01:39:12.347Z,12.20
2018-07-15T01:41:58.082Z,12.43
2018-07-15T01:44:26.434Z,11.53
2018-07-15T01:46:54.814Z,12.03
2018-07-15T01:49:23.174Z,11.83
2018-07-15T01:51:51.511Z,12.07
2018-07-15T01:54:19.768Z,13.57
2018-07-15T01:56:48.075Z,11.93
2018-07-15T01:59:16.386Z,11.07
2018-07-15T02:01:44.641Z,11.33
2018-07-15T02:04:12.955Z,11.88
2018-07-15T02:06:41.225Z,12.20
2018-07-15T02:09:09.699Z,12.20
2018-07-15T02:11:37.987Z,12.00
2018-07-15T02:14:06.630Z,12.43
2018-07-15T02:16:35.064Z,11.70
2018-07-15T02:19:03.401Z,10.87
2018-07-15T02:21:31.731Z,11.07
2018-07-15T02:24:00.214Z,11.40
2018-07-15T02:26:28.519Z,11.33
2018-07-15T02:28:56.871Z,13.33
2018-07-15T02:31:25.207Z,11.93
2018-07-15T02:33:53.308Z,11.30
2018-07-15T02:36:21.679Z,12.50
2018-07-15T02:38:50.259Z,12.17
2018-07-15T02:41:18.561Z,12.33
2018-07-15T02:43:46.852Z,11.60
2018-07-15T02:51:57.879Z,12.33
2018-07-15T02:54:26.206Z,11.85
2018-07-15T02:56:54.476Z,12.70
2018-07-15T02:59:22.747Z,12.00
2018-07-15T03:01:51.082Z,11.57
2018-07-15T03:04:19.371Z,11.90
2018-07-15T03:06:47.794Z,12.30
2018-07-15T03:09:16.470Z,12.33
2018-07-15T03:11:44.853Z,11.57
2018-07-15T03:14:13.238Z,12.73
2018-07-15T03:16:41.564Z,11.60
2018-07-15T03:19:09.898Z,11.50
2018-07-15T03:21:38.230Z,19.87
2018-07-15T03:24:06.540Z,12.50
2018-07-15T03:26:35.332Z,13.17
2018-07-15T03:29:03.681Z,12.07
2018-07-15T03:31:32.023Z,12.23
2018-07-15T03:34:00.364Z,11.47
2018-07-15T03:36:29.778Z,12.10
2018-07-15T03:38:58.177Z,11.60
2018-07-15T03:41:26.531Z,11.97
2018-07-15T03:43:54.799Z,11.67
2018-07-15T03:46:23.077Z,12.90
2018-07-15T03:48:51.371Z,11.77
2018-07-15T03:51:19.668Z,12.00
2018-07-15T03:53:47.990Z,11.80
2018-07-15T03:56:16.261Z,12.73
2018-07-15T03:58:44.629Z,11.73
2018-07-15T04:01:13.049Z,13.23
2018-07-15T04:03:41.385Z,12.17
2018-07-15T04:06:09.691Z,13.17
2018-07-15T04:08:38.271Z,12.13
2018-07-15T04:11:06.779Z,13.33
2018-07-15T04:13:35.087Z,12.67
2018-07-15T04:16:03.420Z,13.30
2018-07-15T04:18:31.717Z,12.30
2018-07-15T04:20:59.998Z,11.07
2018-07-15T04:23:28.267Z,12.07
2018-07-15T04:25:56.560Z,12.70
2018-07-15T04:28:24.840Z,12.23
2018-07-15T04:30:53.207Z,11.43
2018-07-15T04:33:21.519Z,14.40
2018-07-15T04:35:49.760Z,13.03
2018-07-15T04:38:18.061Z,14.63
2018-07-15T04:40:46.302Z,13.20
2018-07-15T04:43:14.627Z,13.13
2018-07-15T04:45:42.924Z,13.43
2018-07-15T04:48:11.331Z,13.60
2018-07-15T04:50:39.633Z,12.90
2018-07-15T04:53:07.966Z,13.77
2018-07-15T04:55:36.390Z,13.48
2018-07-15T04:58:04.772Z,13.97
2018-07-15T05:00:33.089Z,12.87
2018-07-15T05:03:01.376Z,13.53
2018-07-15T05:05:29.797Z,13.53
2018-07-15T05:07:58.084Z,13.77
2018-07-15T05:10:26.406Z,13.80
2018-07-15T05:12:54.749Z,15.13
2018-07-15T05:15:23.205Z,13.37
2018-07-15T05:17:51.474Z,13.70
2018-07-15T05:20:19.779Z,14.73
2018-07-15T05:22:48.090Z,14.07
2018-07-15T05:25:16.450Z,13.67
2018-07-15T05:27:44.881Z,13.72
2018-07-15T05:30:13.243Z,13.53
2018-07-15T05:32:41.497Z,12.97
2018-07-15T05:35:09.838Z,13.30
2018-07-15T05:37:38.142Z,13.60
2018-07-15T05:40:06.458Z,14.40
2018-07-15T05:42:34.773Z,14.93
2018-07-15T05:45:04.202Z,15.33
2018-07-15T05:47:32.574Z,13.80
2018-07-15T05:50:00.955Z,15.40
2018-07-15T05:52:29.346Z,14.60
2018-07-15T05:54:57.591Z,14.93
2018-07-15T05:57:25.904Z,15.70
2018-07-15T05:59:53.920Z,16.97
2018-07-15T06:02:22.211Z,15.00
2018-07-15T06:04:50.513Z,15.10
2018-07-15T06:07:18.815Z,14.20
2018-07-15T06:09:47.354Z,14.70
2018-07-15T06:12:15.630Z,14.67
2018-07-15T06:14:43.897Z,12.73
2018-07-15T06:17:12.408Z,12.50
2018-07-15T06:19:40.568Z,12.67
2018-07-15T06:22:08.858Z,13.38
2018-07-15T06:24:37.162Z,12.70
2018-07-15T06:27:05.237Z,13.43
2018-07-15T06:29:33.739Z,12.30
2018-07-15T06:32:02.168Z,12.40
2018-07-15T06:34:30.451Z,12.80
2018-07-15T06:36:58.492Z,12.73
2018-07-15T06:39:26.786Z,11.90
2018-07-15T06:41:55.069Z,11.43
2018-07-15T06:44:23.387Z,13.53
2018-07-15T06:46:51.718Z,11.70
2018-07-15T06:49:20.107Z,13.20
2018-07-15T06:51:48.376Z,13.33
2018-07-15T06:54:16.887Z,12.98
2018-07-15T06:56:45.215Z,12.67
2018-07-15T06:59:13.504Z,12.33
2018-07-15T07:01:41.842Z,13.03
2018-07-15T07:04:10.352Z,12.30
2018-07-15T07:06:38.643Z,13.10
2018-07-15T07:09:07.201Z,13.27
2018-07-15T07:11:36.421Z,11.47
2018-07-15T07:14:04.997Z,12.00
2018-07-15T07:16:33.282Z,12.33
2018-07-15T07:19:01.632Z,11.00
2018-07-15T07:21:30.017Z,11.40
2018-07-15T07:23:58.331Z,11.00
2018-07-15T07:26:26.669Z,12.82
2018-07-15T07:28:55.087Z,12.13
2018-07-15T07:31:23.341Z,11.90
2018-07-15T07:33:51.800Z,12.07
2018-07-15T07:36:20.059Z,11.40
2018-07-15T07:38:48.323Z,11.70
2018-07-15T07:41:16.653Z,11.50
2018-07-15T07:43:44.922Z,11.70
2018-07-15T07:46:13.252Z,10.80
2018-07-15T07:48:41.640Z,11.83
2018-07-15T07:51:09.960Z,12.07
2018-07-15T07:53:38.245Z,11.90
2018-07-15T07:56:06.747Z,11.37
2018-07-15T07:58:35.308Z,11.07
2018-07-15T08:01:03.664Z,10.90
2018-07-15T08:03:31.972Z,11.90
2018-07-15T08:06:00.413Z,11.47
2018-07-15T08:08:28.772Z,11.47
2018-07-15T08:10:57.099Z,11.80
2018-07-15T08:13:25.443Z,11.20
2018-07-15T08:15:53.723Z,11.53
2018-07-15T08:18:21.970Z,12.27
2018-07-15T08:20:51.039Z,13.30
2018-07-15T08:23:19.783Z,11.23
2018-07-15T08:25:48.325Z,10.90
2018-07-15T08:28:16.904Z,11.07
2018-07-15T08:30:56.782Z,10.90
2018-07-15T08:33:25.394Z,10.20
2018-07-15T08:35:54.171Z,10.00
2018-07-15T08:38:22.859Z,11.87
2018-07-15T08:40:51.622Z,12.07
2018-07-15T08:43:20.153Z,12.00
2018-07-15T08:45:48.542Z,11.70
2018-07-15T08:48:16.989Z,11.50
2018-07-15T08:50:45.668Z,11.33
2018-07-15T08:53:14.124Z,11.28
2018-07-15T08:55:43.196Z,10.90
2018-07-15T08:58:11.775Z,9.40
2018-07-15T09:00:40.444Z,10.37
2018-07-15T09:03:09.306Z,11.37
2018-07-15T09:05:38.253Z,9.27
2018-07-15T09:08:06.988Z,9.70
2018-07-15T09:10:35.494Z,10.77
2018-07-15T09:13:04.108Z,10.60
2018-07-15T09:15:32.732Z,12.70
2018-07-15T09:18:01.590Z,12.30
2018-07-15T09:20:30.322Z,11.47
2018-07-15T09:22:59.272Z,10.70
2018-07-15T09:25:27.586Z,11.30
2018-07-15T09:27:56.434Z,9.40
2018-07-15T09:30:25.162Z,12.40
2018-07-15T09:32:53.839Z,9.63
2018-07-15T09:35:23.138Z,10.23
2018-07-15T09:37:51.932Z,11.80
2018-07-15T09:40:20.823Z,13.37
2018-07-15T09:42:49.231Z,9.00
2018-07-15T09:45:18.183Z,8.93
2018-07-15T09:47:46.890Z,8.10
2018-07-15T09:50:15.422Z,8.23
2018-07-15T09:52:43.857Z,7.87
2018-07-15T09:55:12.375Z,8.37
2018-07-15T09:57:40.939Z,8.83
2018-07-15T10:00:13.990Z,8.40
2018-07-15T10:02:42.568Z,10.53
2018-07-15T10:05:10.873Z,9.90
2018-07-15T10:07:39.953Z,10.90
2018-07-15T10:10:08.618Z,10.97
2018-07-15T10:12:37.386Z,10.13
2018-07-15T10:15:06.026Z,10.93
2018-07-15T10:17:35.782Z,11.70
2018-07-15T10:20:04.748Z,12.33
2018-07-15T10:22:33.702Z,12.53
2018-07-15T10:25:02.501Z,10.60
2018-07-15T10:27:31.323Z,11.43
2018-07-15T10:30:00.103Z,12.13
2018-07-15T10:32:28.719Z,11.37
2018-07-15T10:34:57.351Z,11.57
2018-07-15T10:37:26.391Z,13.23
2018-07-15T10:39:55.225Z,13.43
2018-07-15T10:42:23.834Z,12.57
2018-07-15T10:44:52.544Z,11.77
2018-07-15T10:47:21.174Z,12.30
2018-07-15T10:49:49.885Z,12.00
2018-07-15T10:52:18.696Z,12.13
2018-07-15T10:54:47.187Z,13.17
2018-07-15T10:57:16.059Z,13.23
2018-07-15T10:59:44.694Z,13.13
2018-07-15T11:02:13.414Z,13.33
2018-07-15T11:19:36.496Z,11.30
2018-07-15T11:22:05.581Z,10.13
2018-07-15T11:24:36.056Z,11.10
2018-07-15T11:27:04.753Z,11.70
2018-07-15T11:29:33.650Z,11.10
2018-07-15T11:32:02.715Z,11.83
2018-07-15T11:34:31.729Z,10.80
2018-07-15T11:37:00.482Z,11.37
2018-07-15T11:39:29.656Z,10.63
2018-07-15T11:41:58.547Z,15.25
2018-07-15T11:44:27.607Z,12.10
2018-07-15T11:46:56.250Z,11.80
2018-07-15T11:49:25.072Z,12.30
2018-07-15T11:51:53.887Z,12.03
2018-07-15T11:54:22.769Z,11.47
2018-07-15T11:56:51.957Z,10.63
2018-07-15T11:59:20.861Z,11.50
2018-07-15T12:01:49.622Z,11.50
2018-07-15T12:04:18.533Z,12.17
2018-07-15T12:06:47.429Z,11.83
2018-07-15T12:09:16.140Z,12.20
2018-07-15T12:11:45.037Z,12.30
2018-07-15T12:14:14.145Z,12.53
2018-07-15T12:16:44.355Z,12.10
2018-07-15T12:19:13.402Z,12.58
2018-07-15T12:21:42.406Z,12.20
2018-07-15T12:24:11.234Z,11.60
2018-07-15T12:26:40.155Z,11.83
2018-07-15T12:29:09.369Z,12.77
2018-07-15T12:31:38.491Z,12.53
2018-07-15T12:34:07.214Z,12.93
2018-07-15T12:36:36.317Z,12.47
2018-07-15T12:39:06.730Z,9.63
2018-07-15T12:41:35.671Z,8.70
2018-07-15T12:44:04.347Z,8.57
2018-07-15T12:46:33.470Z,8.40
2018-07-15T12:49:02.477Z,6.28
2018-07-15T12:51:31.538Z,6.80
2018-07-15T12:54:00.246Z,6.27
2018-07-15T12:56:29.101Z,4.50
2018-07-15T12:58:58.198Z,9.30
2018-07-15T13:01:39.572Z,4.47
2018-07-15T13:04:08.746Z,5.93
2018-07-15T13:06:37.343Z,5.57
2018-07-15T13:09:06.916Z,10.60
2018-07-15T13:11:36.016Z,11.90
2018-07-15T13:14:05.292Z,11.80
2018-07-15T13:16:34.021Z,12.73
2018-07-15T13:19:02.974Z,12.18
2018-07-15T13:21:31.905Z,12.23
2018-07-15T13:24:00.878Z,9.13
2018-07-15T13:26:29.883Z,8.97
2018-07-15T13:28:58.665Z,9.50
2018-07-15T13:31:27.575Z,7.37
2018-07-15T13:33:56.700Z,8.70
2018-07-15T13:36:25.439Z,8.00
2018-07-15T13:38:54.226Z,8.13
2018-07-15T13:41:23.031Z,8.13
2018-07-15T13:43:51.888Z,7.33
2018-07-15T13:46:20.779Z,7.90
2018-07-15T13:48:49.697Z,7.10
2018-07-15T13:51:18.543Z,7.43
2018-07-15T13:53:47.743Z,7.20
2018-07-15T13:56:16.665Z,7.13
2018-07-15T13:58:45.431Z,6.50
2018-07-15T14:01:14.293Z,6.87
2018-07-15T14:03:43.224Z,7.00
2018-07-15T14:06:12.434Z,6.92
2018-07-15T14:08:41.140Z,7.53
2018-07-15T14:11:10.241Z,7.73
2018-07-15T14:13:40.192Z,7.15
2018-07-15T14:16:08.801Z,7.77
